createdAt,value
2024-01-22T00:00:48.414Z,3.91
2024-01-22T00:03:17.549Z,3.90
2024-01-22T00:05:45.988Z,3.93
2024-01-22T00:08:14.695Z,3.95
2024-01-22T00:10:42.695Z,3.96
2024-01-22T00:13:10.533Z,3.98
2024-01-22T00:15:38.405Z,3.98
2024-01-22T00:18:08.255Z,4.00
2024-01-22T00:20:36.920Z,4.00
2024-01-22T00:23:05.674Z,4.02
2024-01-22T00:25:33.700Z,4.02
2024-01-22T00:28:01.544Z,4.04
2024-01-22T00:30:29.489Z,4.06
2024-01-22T00:32:57.895Z,4.07
2024-01-22T00:35:26.231Z,4.09
2024-01-22T00:37:54.148Z,4.10
2024-01-22T00:40:22.074Z,4.10
2024-01-22T00:42:50.072Z,4.11
2024-01-22T00:45:18.209Z,4.13
2024-01-22T00:47:46.174Z,4.13
2024-01-22T00:50:14.572Z,4.15
2024-01-22T00:52:43.860Z,4.18
2024-01-22T00:55:11.898Z,4.17
2024-01-22T00:57:39.862Z,4.19
2024-01-22T01:00:09.456Z,4.20
2024-01-22T01:02:37.515Z,4.21
2024-01-22T01:05:05.709Z,4.23
2024-01-22T01:07:34.232Z,4.25
2024-01-22T01:10:03.630Z,4.27
2024-01-22T01:12:31.467Z,4.28
2024-01-22T01:14:59.354Z,4.30
2024-01-22T01:17:27.356Z,4.33
2024-01-22T01:19:55.342Z,4.34
2024-01-22T01:22:23.184Z,4.38
2024-01-22T01:24:51.032Z,4.40
2024-01-22T01:27:20.584Z,4.44
2024-01-22T01:29:48.534Z,4.46
2024-01-22T01:32:16.618Z,4.48
2024-01-22T01:34:44.676Z,4.51
2024-01-22T01:37:12.550Z,4.54
2024-01-22T01:39:40.394Z,4.56
2024-01-22T01:42:08.596Z,4.60
2024-01-22T01:44:51.342Z,4.65
2024-01-22T01:47:19.967Z,4.63
2024-01-22T01:49:49.279Z,4.70
2024-01-22T01:52:18.304Z,4.73
2024-01-22T01:54:47.623Z,4.78
2024-01-22T01:57:16.078Z,4.79
2024-01-22T01:59:45.694Z,4.83
2024-01-22T02:02:14.352Z,4.86
2024-01-22T02:04:42.321Z,4.88
2024-01-22T02:07:10.648Z,4.92
2024-01-22T02:09:49.235Z,4.97
2024-01-22T02:12:18.481Z,4.97
2024-01-22T02:14:48.382Z,4.99
2024-01-22T02:17:16.632Z,5.02
2024-01-22T02:19:45.125Z,5.04
2024-01-22T02:22:13.402Z,5.07
2024-01-22T02:24:42.752Z,5.11
2024-01-22T02:27:10.834Z,5.11
2024-01-22T02:29:38.898Z,5.14
2024-01-22T02:32:07.522Z,5.16
2024-01-22T02:34:35.870Z,5.16
2024-01-22T02:37:03.990Z,5.18
2024-01-22T02:39:32.114Z,5.21
2024-01-22T02:42:01.651Z,5.21
2024-01-22T02:44:29.461Z,5.21
2024-01-22T02:46:57.516Z,5.23
2024-01-22T02:49:25.594Z,5.24
2024-01-22T02:51:53.598Z,5.26
2024-01-22T02:54:21.554Z,5.25
2024-01-22T02:56:49.553Z,5.27
2024-01-22T02:59:20.243Z,5.29
2024-01-22T03:01:48.278Z,5.28
2024-01-22T03:04:16.698Z,5.29
2024-01-22T03:06:44.778Z,5.29
2024-01-22T03:09:12.743Z,5.29
2024-01-22T03:11:41.865Z,5.32
2024-01-22T03:14:09.731Z,5.32
2024-01-22T03:16:39.029Z,5.33
2024-01-22T03:19:07.171Z,5.32
2024-01-22T03:21:35.093Z,5.33
2024-01-22T03:24:03.291Z,5.35
2024-01-22T03:26:31.464Z,5.35
2024-01-22T03:28:59.370Z,5.36
2024-01-22T03:31:28.764Z,5.38
2024-01-22T03:33:58.833Z,5.39
2024-01-22T03:36:27.303Z,5.38
2024-01-22T03:38:55.216Z,5.39
2024-01-22T03:41:23.215Z,5.40
2024-01-22T03:43:51.121Z,5.40
2024-01-22T03:46:19.953Z,5.42
2024-01-22T03:48:48.053Z,5.42
2024-01-22T03:51:17.556Z,5.45
2024-01-22T03:53:45.552Z,5.46
2024-01-22T03:56:13.986Z,5.47
2024-01-22T03:58:41.993Z,5.47
2024-01-22T04:01:10.278Z,5.44
2024-01-22T04:03:38.288Z,5.36
2024-01-22T04:06:07.349Z,5.25
2024-01-22T04:08:36.706Z,5.13
2024-01-22T04:11:04.686Z,4.99
2024-01-22T04:13:35.478Z,4.88
2024-01-22T04:16:03.955Z,4.75
2024-01-22T04:18:32.076Z,4.67
2024-01-22T04:21:00.183Z,4.56
2024-01-22T04:23:28.537Z,4.48
2024-01-22T04:25:57.909Z,4.40
2024-01-22T04:28:25.890Z,4.31
2024-01-22T04:30:53.837Z,4.27
2024-01-22T04:33:22.031Z,4.21
2024-01-22T04:35:50.838Z,4.16
2024-01-22T04:38:19.675Z,4.11
2024-01-22T04:40:47.724Z,4.06
2024-01-22T04:43:17.865Z,4.06
2024-01-22T04:45:45.819Z,4.00
2024-01-22T04:48:14.179Z,3.98
2024-01-22T04:50:42.293Z,3.96
2024-01-22T04:53:10.276Z,3.94
2024-01-22T04:55:38.616Z,3.92
2024-01-22T04:58:06.681Z,3.91
2024-01-22T05:00:36.105Z,3.92
2024-01-22T05:03:06.493Z,3.92
2024-01-22T05:05:35.446Z,3.91
2024-01-22T05:08:03.593Z,3.92
2024-01-22T05:10:31.532Z,3.92
2024-01-22T05:12:59.385Z,3.93
2024-01-22T05:15:27.318Z,3.93
2024-01-22T05:17:56.804Z,3.95
2024-01-22T05:20:24.736Z,3.95
2024-01-22T05:22:52.612Z,3.97
2024-01-22T05:25:20.700Z,3.97
2024-01-22T05:27:49.405Z,3.99
2024-01-22T05:30:17.404Z,3.99
2024-01-22T05:32:45.451Z,4.00
2024-01-22T05:35:16.163Z,4.02
2024-01-22T05:37:44.063Z,4.02
2024-01-22T05:40:12.497Z,4.04
2024-01-22T05:42:41.830Z,4.04
2024-01-22T05:45:11.613Z,4.05
2024-01-22T05:47:39.631Z,4.08
2024-01-22T05:50:10.121Z,4.09
2024-01-22T05:52:39.467Z,4.09
2024-01-22T05:55:08.120Z,4.11
2024-01-22T05:57:36.081Z,4.11
2024-01-22T06:00:10.586Z,4.12
2024-01-22T06:02:40.960Z,4.13
2024-01-22T06:05:10.658Z,4.16
2024-01-22T06:07:40.211Z,4.20
2024-01-22T06:10:09.878Z,4.23
2024-01-22T06:12:38.257Z,4.28
2024-01-22T06:15:06.853Z,4.31
2024-01-22T06:17:35.133Z,4.36
2024-01-22T06:20:04.583Z,4.43
2024-01-22T06:22:34.721Z,4.49
2024-01-22T06:25:05.103Z,4.55
2024-01-22T06:27:33.035Z,4.62
2024-01-22T06:32:56.625Z,4.76
2024-01-22T06:35:24.716Z,4.84
2024-01-22T06:37:53.456Z,4.93
2024-01-22T06:40:22.828Z,5.02
2024-01-22T06:42:50.951Z,5.08
2024-01-22T06:45:19.268Z,5.16
2024-01-22T06:47:47.214Z,5.23
2024-01-22T06:50:15.545Z,5.32
2024-01-22T06:52:44.181Z,5.40
2024-01-22T06:55:12.126Z,5.47
2024-01-22T06:57:41.688Z,5.57
2024-01-22T07:00:13.310Z,5.62
2024-01-22T07:02:42.833Z,5.66
2024-01-22T07:05:11.841Z,5.74
2024-01-22T07:07:40.336Z,5.79
2024-01-22T07:10:09.797Z,5.85
2024-01-22T07:12:38.093Z,5.89
2024-01-22T07:15:09.934Z,5.95
2024-01-22T07:17:37.902Z,5.97
2024-01-22T07:20:06.978Z,6.02
2024-01-22T07:22:37.526Z,6.06
2024-01-22T07:25:06.063Z,6.11
2024-01-22T07:27:33.865Z,6.14
2024-01-22T07:30:01.837Z,6.19
2024-01-22T07:32:31.753Z,6.24
2024-01-22T07:34:59.766Z,6.28
2024-01-22T07:37:27.737Z,6.33
2024-01-22T07:39:56.189Z,6.38
2024-01-22T07:42:24.093Z,6.42
2024-01-22T07:44:52.217Z,6.48
2024-01-22T07:47:23.184Z,6.53
2024-01-22T07:49:52.726Z,6.59
2024-01-22T07:52:22.017Z,6.64
2024-01-22T07:54:50.521Z,6.69
2024-01-22T07:57:18.662Z,6.73
2024-01-22T07:59:47.802Z,6.77
2024-01-22T08:02:16.006Z,6.79
2024-01-22T08:04:44.079Z,6.81
2024-01-22T08:07:13.680Z,6.85
2024-01-22T08:09:42.191Z,6.84
2024-01-22T08:12:10.220Z,6.85
2024-01-22T08:14:38.268Z,6.86
2024-01-22T08:17:06.240Z,6.87
2024-01-22T08:19:35.814Z,6.87
2024-01-22T08:22:04.238Z,6.87
2024-01-22T08:24:34.156Z,6.88
2024-01-22T08:27:02.321Z,6.87
2024-01-22T08:29:30.307Z,6.87
2024-01-22T08:31:58.201Z,6.88
2024-01-22T08:34:26.399Z,6.87
2024-01-22T08:36:54.477Z,6.86
2024-01-22T08:39:22.657Z,6.85
2024-01-22T08:41:51.968Z,6.85
2024-01-22T08:44:20.138Z,6.82
2024-01-22T08:46:48.059Z,6.82
2024-01-22T08:49:16.031Z,6.82
2024-01-22T08:51:44.000Z,6.83
2024-01-22T08:54:12.064Z,6.84
2024-01-22T08:56:40.292Z,6.85
2024-01-22T08:59:10.074Z,6.87
2024-01-22T09:01:38.112Z,6.87
2024-01-22T09:04:07.279Z,6.88
2024-01-22T09:06:35.476Z,6.89
2024-01-22T09:09:06.320Z,6.92
2024-01-22T09:11:34.358Z,6.92
2024-01-22T09:14:02.270Z,6.93
2024-01-22T09:16:31.790Z,6.95
2024-01-22T09:19:00.204Z,6.96
2024-01-22T09:21:28.340Z,6.97
2024-01-22T09:23:56.353Z,6.99
2024-01-22T09:26:24.373Z,7.00
2024-01-22T09:28:52.448Z,7.03
2024-01-22T09:31:20.451Z,7.05
2024-01-22T09:33:52.408Z,7.08
2024-01-22T09:36:20.809Z,7.06
2024-01-22T09:38:48.921Z,7.10
2024-01-22T09:41:17.345Z,7.12
2024-01-22T09:43:45.363Z,7.14
2024-01-22T09:46:14.223Z,7.17
2024-01-22T09:48:42.805Z,7.19
2024-01-22T09:51:14.022Z,7.23
2024-01-22T09:53:47.741Z,7.24
2024-01-22T09:56:21.105Z,7.27
2024-01-22T09:58:54.132Z,7.29
2024-01-22T10:01:22.244Z,7.30
2024-01-22T10:03:50.265Z,7.33
2024-01-22T10:06:22.958Z,7.38
2024-01-22T10:08:58.694Z,7.39
2024-01-22T10:11:27.418Z,7.41
2024-01-22T10:13:57.920Z,7.44
2024-01-22T10:16:27.547Z,7.49
2024-01-22T10:19:00.374Z,7.53
2024-01-22T10:21:30.122Z,7.55
2024-01-22T10:23:59.245Z,7.60
2024-01-22T10:26:27.232Z,7.62
2024-01-22T10:28:56.436Z,7.69
2024-01-22T10:31:24.468Z,7.72
2024-01-22T10:34:06.709Z,7.78
2024-01-22T10:36:36.266Z,7.80
2024-01-22T10:39:05.575Z,7.87
2024-01-22T10:41:36.441Z,7.93
2024-01-22T10:44:05.212Z,8.02
2024-01-22T10:46:33.773Z,8.09
2024-01-22T10:49:02.496Z,8.16
2024-01-22T10:51:31.302Z,8.26
2024-01-22T10:54:00.910Z,8.35
2024-01-22T10:56:32.593Z,8.44
2024-01-22T10:59:09.931Z,8.51
2024-01-22T11:01:39.403Z,8.58
2024-01-22T11:04:11.947Z,8.66
2024-01-22T11:06:44.139Z,8.73
2024-01-22T11:09:14.584Z,8.77
2024-01-22T11:11:44.534Z,8.86
2024-01-22T11:14:12.530Z,8.91
2024-01-22T11:16:40.744Z,8.97
2024-01-22T11:19:09.260Z,9.04
2024-01-22T11:21:39.221Z,9.08
2024-01-22T11:24:11.817Z,9.14
2024-01-22T11:26:45.791Z,9.18
2024-01-22T11:29:17.513Z,9.21
2024-01-22T11:31:48.009Z,9.26
2024-01-22T11:34:37.925Z,9.31
2024-01-22T11:37:08.741Z,9.32
2024-01-22T11:39:44.037Z,9.40
2024-01-22T11:42:29.832Z,9.43
2024-01-22T11:45:08.772Z,9.44
2024-01-22T11:47:37.057Z,9.46
2024-01-22T11:50:08.649Z,9.51
2024-01-22T11:52:38.567Z,9.53
2024-01-22T11:55:08.519Z,9.54
2024-01-22T11:57:41.191Z,9.56
2024-01-22T12:00:13.464Z,9.58
2024-01-22T12:02:43.691Z,9.60
2024-01-22T12:05:14.266Z,9.62
2024-01-22T12:07:44.030Z,9.61
2024-01-22T12:10:22.623Z,9.63
2024-01-22T12:12:53.497Z,9.59
2024-01-22T12:15:23.826Z,9.54
2024-01-22T12:17:52.949Z,9.51
2024-01-22T12:20:21.854Z,9.48
2024-01-22T12:22:58.672Z,9.49
2024-01-22T12:25:35.483Z,9.48
2024-01-22T12:28:11.841Z,9.48
2024-01-22T12:30:43.392Z,9.45
2024-01-22T12:33:22.850Z,9.48
2024-01-22T12:35:53.426Z,9.48
2024-01-22T12:38:23.601Z,9.51
2024-01-22T12:40:59.299Z,9.57
2024-01-22T12:43:30.108Z,9.59
2024-01-22T12:46:06.164Z,9.65
2024-01-22T12:48:34.989Z,9.65
2024-01-22T12:51:03.204Z,9.70
2024-01-22T12:53:33.658Z,9.72
2024-01-22T12:56:02.371Z,9.78
2024-01-22T12:58:31.850Z,9.82
2024-01-22T13:01:00.193Z,9.84
2024-01-22T13:03:28.426Z,9.86
2024-01-22T13:05:56.493Z,9.88
2024-01-22T13:08:24.436Z,9.87
2024-01-22T13:10:52.859Z,9.85
2024-01-22T13:13:20.810Z,9.82
2024-01-22T13:16:03.073Z,9.81
2024-01-22T13:18:40.048Z,9.74
2024-01-22T13:21:08.974Z,9.70
2024-01-22T13:23:37.170Z,9.65
2024-01-22T13:26:05.593Z,9.60
2024-01-22T13:28:33.504Z,9.56
2024-01-22T13:31:03.215Z,9.53
2024-01-22T13:33:31.298Z,9.45
2024-01-22T13:35:59.409Z,9.41
2024-01-22T13:38:30.254Z,9.38
2024-01-22T13:40:58.921Z,9.34
2024-01-22T13:43:26.843Z,9.28
2024-01-22T13:45:55.436Z,9.24
2024-01-22T13:48:24.910Z,9.23
2024-01-22T13:50:53.164Z,9.18
2024-01-22T13:53:21.745Z,9.16
2024-01-22T13:55:49.977Z,9.15
2024-01-22T13:58:17.894Z,9.14
2024-01-22T14:00:45.970Z,9.13
2024-01-22T14:03:14.677Z,9.13
2024-01-22T14:05:44.291Z,9.13
2024-01-22T14:08:12.579Z,9.14
2024-01-22T14:10:42.214Z,9.13
2024-01-22T14:13:10.369Z,9.14
2024-01-22T14:15:38.307Z,9.16
2024-01-22T14:18:06.653Z,9.16
2024-01-22T14:20:34.792Z,9.19
2024-01-22T14:23:08.775Z,9.21
2024-01-22T14:25:37.890Z,9.22
2024-01-22T14:28:06.350Z,9.24
2024-01-22T14:30:34.889Z,9.25
2024-01-22T14:33:03.071Z,9.27
2024-01-22T14:35:31.663Z,9.28
2024-01-22T14:38:00.412Z,9.28
2024-01-22T14:40:30.050Z,9.31
2024-01-22T14:42:58.447Z,9.29
2024-01-22T14:45:26.864Z,9.30
2024-01-22T14:47:55.594Z,9.31
2024-01-22T14:50:23.885Z,9.32
2024-01-22T14:52:51.840Z,9.33
2024-01-22T14:55:19.962Z,9.34
2024-01-22T14:57:49.230Z,9.36
2024-01-22T15:00:18.327Z,9.35
2024-01-22T15:02:46.317Z,9.35
2024-01-22T15:05:15.421Z,9.36
2024-01-22T15:07:43.509Z,9.37
2024-01-22T15:10:11.752Z,9.36
2024-01-22T15:12:39.652Z,9.36
2024-01-22T15:15:11.224Z,9.37
2024-01-22T15:17:39.428Z,9.34
2024-01-22T15:20:10.489Z,9.35
2024-01-22T15:22:40.740Z,9.29
2024-01-22T15:25:10.490Z,9.30
2024-01-22T15:27:38.931Z,9.28
2024-01-22T15:30:12.370Z,9.26
2024-01-22T15:32:41.074Z,9.25
2024-01-22T15:35:10.932Z,9.22
2024-01-22T15:37:39.611Z,9.21
2024-01-22T15:40:09.034Z,9.20
2024-01-22T15:42:37.786Z,9.17
2024-01-22T15:45:09.392Z,9.15
2024-01-22T15:47:40.985Z,9.13
2024-01-22T15:50:09.845Z,9.11
2024-01-22T15:52:37.787Z,9.09
2024-01-22T15:55:06.455Z,9.07
2024-01-22T15:57:35.051Z,9.04
2024-01-22T16:00:03.551Z,9.02
2024-01-22T16:02:41.516Z,9.02
2024-01-22T16:05:10.059Z,9.00
2024-01-22T16:07:38.513Z,8.97
2024-01-22T16:10:07.925Z,8.97
2024-01-22T16:12:36.207Z,8.95
2024-01-22T16:15:04.721Z,8.94
2024-01-22T16:17:33.039Z,8.91
2024-01-22T16:20:02.652Z,8.91
2024-01-22T16:22:30.731Z,8.89
2024-01-22T16:25:02.735Z,8.87
2024-01-22T16:27:30.799Z,8.85
2024-01-22T16:29:58.963Z,8.83
2024-01-22T16:32:27.120Z,8.82
2024-01-22T16:34:56.040Z,8.81
2024-01-22T16:37:27.386Z,8.78
2024-01-22T16:39:55.326Z,8.76
2024-01-22T16:42:23.291Z,8.74
2024-01-22T16:44:51.464Z,8.73
2024-01-22T16:47:19.985Z,8.71
2024-01-22T16:49:48.125Z,8.69
2024-01-22T16:52:16.612Z,8.69
2024-01-22T16:54:46.298Z,8.70
2024-01-22T16:57:14.538Z,8.68
2024-01-22T16:59:42.919Z,8.67
2024-01-22T17:02:10.841Z,8.67
2024-01-22T17:04:38.868Z,8.66
2024-01-22T17:07:07.376Z,8.66
2024-01-22T17:09:35.477Z,8.65
2024-01-22T17:12:07.431Z,8.67
2024-01-22T17:14:36.793Z,8.65
2024-01-22T17:20:58.683Z,8.59
2024-01-22T17:23:27.088Z,8.62
2024-01-22T17:25:55.904Z,8.63
2024-01-22T17:28:25.442Z,8.63
2024-01-22T17:30:53.897Z,8.60
2024-01-22T17:33:22.300Z,8.61
2024-01-22T17:35:50.682Z,8.59
2024-01-22T17:38:19.404Z,8.60
2024-01-22T17:40:47.521Z,8.59
2024-01-22T17:43:15.608Z,8.58
2024-01-22T17:45:45.235Z,8.59
2024-01-22T17:48:13.241Z,8.56
2024-01-22T17:50:40.201Z,8.56
2024-01-22T17:53:08.148Z,8.56
2024-01-22T17:55:36.116Z,8.54
2024-01-22T17:58:04.276Z,8.54
2024-01-22T18:00:32.381Z,8.53
2024-01-22T18:03:01.950Z,8.54
2024-01-22T18:05:29.950Z,8.52
2024-01-22T18:07:58.772Z,8.52
2024-01-22T18:10:26.777Z,8.50
2024-01-22T18:12:54.927Z,8.50
2024-01-22T18:15:23.113Z,8.48
2024-01-22T18:17:51.269Z,8.48
2024-01-22T18:20:20.705Z,8.49
2024-01-22T18:22:48.750Z,8.48
2024-01-22T18:25:16.952Z,8.47
2024-01-22T18:27:44.988Z,8.47
2024-01-22T18:30:13.643Z,8.47
2024-01-22T18:32:41.717Z,8.46
2024-01-22T18:35:10.326Z,8.45
2024-01-22T18:37:39.692Z,8.47
2024-01-22T18:40:09.868Z,8.45
2024-01-22T18:42:39.158Z,8.45
2024-01-22T18:45:11.173Z,8.45
2024-01-22T18:47:40.910Z,8.45
2024-01-22T18:50:09.894Z,8.45
2024-01-22T18:52:39.263Z,8.45
2024-01-22T18:55:08.323Z,8.44
2024-01-22T18:57:36.356Z,8.43
2024-01-22T19:00:05.370Z,8.43
2024-01-22T19:02:33.394Z,8.42
2024-01-22T19:05:01.530Z,8.40
2024-01-22T19:07:29.520Z,8.40
2024-01-22T19:09:58.791Z,8.40
2024-01-22T19:12:26.869Z,8.39
2024-01-22T19:14:55.001Z,8.38
2024-01-22T19:17:22.967Z,8.38
2024-01-22T19:19:51.137Z,8.39
2024-01-22T19:22:19.237Z,8.38
2024-01-22T19:24:47.222Z,8.37
2024-01-22T19:27:17.330Z,8.38
2024-01-22T19:29:45.285Z,8.37
2024-01-22T19:32:14.337Z,8.36
2024-01-22T19:34:42.454Z,8.35
2024-01-22T19:37:10.590Z,8.36
2024-01-22T19:39:38.580Z,8.35
2024-01-22T19:42:07.298Z,8.36
2024-01-22T19:44:38.431Z,8.37
2024-01-22T19:47:06.827Z,8.36
2024-01-22T19:49:34.723Z,8.36
2024-01-22T19:52:02.734Z,8.34
2024-01-22T19:54:30.639Z,8.34
2024-01-22T19:56:58.793Z,8.34
2024-01-22T19:59:27.343Z,8.35
2024-01-22T20:01:56.743Z,8.36
2024-01-22T20:04:24.806Z,8.34
2024-01-22T20:06:55.120Z,8.34
2024-01-22T20:09:25.512Z,8.34
2024-01-22T20:11:53.824Z,8.36
2024-01-22T20:14:21.804Z,8.34
2024-01-22T20:16:49.763Z,8.35
2024-01-22T20:19:19.119Z,8.36
2024-01-22T20:21:48.820Z,8.37
2024-01-22T20:24:19.194Z,8.34
2024-01-22T20:26:48.325Z,8.37
2024-01-22T20:29:16.448Z,8.36
2024-01-22T20:31:44.466Z,8.36
2024-01-22T20:34:12.688Z,8.37
2024-01-22T20:36:42.065Z,8.37
2024-01-22T20:39:10.055Z,8.34
2024-01-22T20:41:41.581Z,8.36
2024-01-22T20:44:09.739Z,8.34
2024-01-22T20:46:37.987Z,8.35
2024-01-22T20:49:06.508Z,8.35
2024-01-22T20:51:34.616Z,8.35
2024-01-22T20:54:04.461Z,8.38
2024-01-22T20:56:32.405Z,8.34
2024-01-22T20:59:01.665Z,8.36
2024-01-22T21:01:30.004Z,8.34
2024-01-22T21:03:58.257Z,8.34
2024-01-22T21:06:26.648Z,8.35
2024-01-22T21:08:54.975Z,8.33
2024-01-22T21:11:24.618Z,8.36
2024-01-22T21:13:53.404Z,8.34
2024-01-22T21:16:22.160Z,8.34
2024-01-22T21:18:50.289Z,8.34
2024-01-22T21:21:18.445Z,8.35
2024-01-22T21:23:49.236Z,8.34
2024-01-22T21:26:18.903Z,8.33
2024-01-22T21:28:49.940Z,8.36
2024-01-22T21:31:19.544Z,8.34
2024-01-22T21:33:49.141Z,8.34
2024-01-22T21:36:17.625Z,8.34
2024-01-22T21:38:45.754Z,8.33
2024-01-22T21:41:14.357Z,8.33
2024-01-22T21:43:42.342Z,8.34
2024-01-22T21:46:11.810Z,8.35
2024-01-22T21:48:39.933Z,8.33
2024-01-22T21:51:07.917Z,8.33
2024-01-22T21:53:42.318Z,8.33
2024-01-22T21:56:11.176Z,8.34
2024-01-22T21:58:39.333Z,8.33
2024-01-22T22:01:08.421Z,8.34
2024-01-22T22:03:38.263Z,8.34
2024-01-22T22:06:07.856Z,8.33
2024-01-22T22:08:36.156Z,8.33
2024-01-22T22:11:04.800Z,8.33
2024-01-22T22:13:32.806Z,8.32
2024-01-22T22:16:01.840Z,8.33
2024-01-22T22:18:30.602Z,8.33
2024-01-22T22:21:00.107Z,8.33
2024-01-22T22:23:28.764Z,8.32
2024-01-22T22:25:56.631Z,8.30
2024-01-22T22:28:24.491Z,8.31
2024-01-22T22:30:53.730Z,8.33
2024-01-22T22:33:22.175Z,8.32
2024-01-22T22:35:51.442Z,8.34
2024-01-22T22:38:21.065Z,8.33
2024-01-22T22:40:49.067Z,8.31
2024-01-22T22:43:20.162Z,8.32
2024-01-22T22:45:48.201Z,8.32
2024-01-22T22:48:16.279Z,8.32
2024-01-22T22:50:44.411Z,8.32
2024-01-22T22:53:12.363Z,8.32
2024-01-22T22:55:41.869Z,8.32
2024-01-22T22:58:09.745Z,8.30
2024-01-22T23:00:37.929Z,8.30
2024-01-22T23:03:06.947Z,8.32
2024-01-22T23:05:35.036Z,8.30
2024-01-22T23:08:03.115Z,8.30
2024-01-22T23:10:31.013Z,8.29
2024-01-22T23:13:01.120Z,8.33
2024-01-22T23:15:29.281Z,8.32
2024-01-22T23:17:57.343Z,8.30
2024-01-22T23:20:25.821Z,8.30
2024-01-22T23:22:53.982Z,8.30
2024-01-22T23:25:21.902Z,8.29
2024-01-22T23:27:49.781Z,8.29
2024-01-22T23:30:19.354Z,8.29
2024-01-22T23:32:47.318Z,8.27
2024-01-22T23:35:15.758Z,8.27
2024-01-22T23:37:49.543Z,8.26
2024-01-22T23:40:17.879Z,8.25
2024-01-22T23:42:46.075Z,8.25
2024-01-22T23:45:14.599Z,8.25
2024-01-22T23:47:43.966Z,8.25
2024-01-22T23:50:12.834Z,8.23
2024-01-22T23:52:40.916Z,8.22
2024-01-22T23:55:11.297Z,8.23
2024-01-22T23:57:39.671Z,8.21
